Schedule Details


Flight Number: CTN4457
Departure: Brussels National (EBBR) at 18:30
Arrival: Franjo Tudman (LDZA) at 20:20
Route: SPI UL607 PELIX UZ210 LIRSU UZ315 RIDAR UZ738 MUN UM867 VAROB DCT PIKIT DCT ARGOM

Weather Information
EBBR 112250Z VRB02KT CAVOK 10/09 Q1011 NOSIG
LDZA 112300Z 25011KT CAVOK 19/10 Q1007 BECMG 24008KT
Schedule Frequency

Route Map